sensor_id;sensor_type;location;lat;lon;timestamp;P1;durP1;ratioP1;P2;durP2;ratioP2
81996;SDS011;71500;50.806;8.774;2024-03-23T00:52:23;8.20;;;5.70;;
81996;SDS011;71500;50.806;8.774;2024-03-23T00:55:00;7.50;;;5.10;;
81996;SDS011;71500;50.806;8.774;2024-03-23T00:57:38;7.60;;;6.10;;
81996;SDS011;71500;50.806;8.774;2024-03-23T01:00:15;9.40;;;5.80;;
81996;SDS011;71500;50.806;8.774;2024-03-23T01:02:53;7.70;;;5.60;;
81996;SDS011;71500;50.806;8.774;2024-03-23T01:05:30;9.20;;;5.90;;
81996;SDS011;71500;50.806;8.774;2024-03-23T01:08:08;11.80;;;7.30;;
81996;SDS011;71500;50.806;8.774;2024-03-23T01:10:50;8.30;;;5.60;;
81996;SDS011;71500;50.806;8.774;2024-03-23T01:13:32;7.10;;;5.50;;
81996;SDS011;71500;50.806;8.774;2024-03-23T01:16:09;8.80;;;5.90;;
81996;SDS011;71500;50.806;8.774;2024-03-23T01:18:46;7.10;;;5.10;;
81996;SDS011;71500;50.806;8.774;2024-03-23T01:21:25;7.60;;;5.10;;
81996;SDS011;71500;50.806;8.774;2024-03-23T01:24:02;8.80;;;6.10;;
81996;SDS011;71500;50.806;8.774;2024-03-23T01:26:42;7.50;;;5.20;;
81996;SDS011;71500;50.806;8.774;2024-03-23T01:29:19;9.40;;;6.10;;
81996;SDS011;71500;50.806;8.774;2024-03-23T01:31:56;8.90;;;6.00;;
81996;SDS011;71500;50.806;8.774;2024-03-23T01:34:33;9.20;;;6.60;;
81996;SDS011;71500;50.806;8.774;2024-03-23T01:37:10;6.80;;;4.80;;
81996;SDS011;71500;50.806;8.774;2024-03-23T01:39:47;8.70;;;5.60;;
81996;SDS011;71500;50.806;8.774;2024-03-23T01:42:25;9.00;;;5.10;;
81996;SDS011;71500;50.806;8.774;2024-03-23T01:45:02;8.50;;;5.90;;
81996;SDS011;71500;50.806;8.774;2024-03-23T01:47:44;7.20;;;5.20;;
81996;SDS011;71500;50.806;8.774;2024-03-23T01:50:22;8.30;;;6.00;;
81996;SDS011;71500;50.806;8.774;2024-03-23T01:53:00;7.40;;;5.60;;
81996;SDS011;71500;50.806;8.774;2024-03-23T01:55:38;8.80;;;6.20;;
81996;SDS011;71500;50.806;8.774;2024-03-23T01:58:15;6.50;;;5.10;;
81996;SDS011;71500;50.806;8.774;2024-03-23T02:00:53;8.30;;;6.00;;
81996;SDS011;71500;50.806;8.774;2024-03-23T02:03:31;8.00;;;6.00;;
81996;SDS011;71500;50.806;8.774;2024-03-23T02:06:09;8.20;;;5.50;;
81996;SDS011;71500;50.806;8.774;2024-03-23T02:08:46;8.40;;;6.00;;
81996;SDS011;71500;50.806;8.774;2024-03-23T02:11:23;8.60;;;6.30;;
81996;SDS011;71500;50.806;8.774;2024-03-23T02:14:00;8.40;;;6.00;;
81996;SDS011;71500;50.806;8.774;2024-03-23T02:16:39;7.50;;;5.30;;
81996;SDS011;71500;50.806;8.774;2024-03-23T02:19:18;8.20;;;5.60;;
81996;SDS011;71500;50.806;8.774;2024-03-23T02:21:56;6.80;;;5.20;;
81996;SDS011;71500;50.806;8.774;2024-03-23T02:24:33;7.10;;;5.40;;
81996;SDS011;71500;50.806;8.774;2024-03-23T02:27:11;8.00;;;5.90;;
81996;SDS011;71500;50.806;8.774;2024-03-23T02:29:48;8.40;;;5.60;;
81996;SDS011;71500;50.806;8.774;2024-03-23T02:32:25;8.50;;;5.60;;
81996;SDS011;71500;50.806;8.774;2024-03-23T02:35:03;6.50;;;4.80;;
81996;SDS011;71500;50.806;8.774;2024-03-23T02:37:41;8.10;;;5.80;;
81996;SDS011;71500;50.806;8.774;2024-03-23T02:40:21;8.70;;;5.20;;
81996;SDS011;71500;50.806;8.774;2024-03-23T02:42:58;10.30;;;6.50;;
81996;SDS011;71500;50.806;8.774;2024-03-23T02:45:35;9.60;;;7.10;;
81996;SDS011;71500;50.806;8.774;2024-03-23T02:48:12;9.80;;;6.40;;
81996;SDS011;71500;50.806;8.774;2024-03-23T02:50:50;10.40;;;7.00;;
81996;SDS011;71500;50.806;8.774;2024-03-23T02:53:27;9.90;;;7.00;;
81996;SDS011;71500;50.806;8.774;2024-03-23T02:56:04;10.90;;;6.90;;
81996;SDS011;71500;50.806;8.774;2024-03-23T02:58:47;12.50;;;7.40;;
81996;SDS011;71500;50.806;8.774;2024-03-23T03:01:24;10.90;;;7.50;;
81996;SDS011;71500;50.806;8.774;2024-03-23T03:04:02;9.50;;;7.20;;
81996;SDS011;71500;50.806;8.774;2024-03-23T03:06:39;9.90;;;6.60;;
81996;SDS011;71500;50.806;8.774;2024-03-23T03:09:19;9.70;;;7.00;;
81996;SDS011;71500;50.806;8.774;2024-03-23T03:11:57;10.10;;;7.20;;
81996;SDS011;71500;50.806;8.774;2024-03-23T03:14:35;8.70;;;6.70;;
81996;SDS011;71500;50.806;8.774;2024-03-23T03:17:12;11.40;;;7.30;;
81996;SDS011;71500;50.806;8.774;2024-03-23T03:19:49;11.20;;;7.30;;
81996;SDS011;71500;50.806;8.774;2024-03-23T03:22:27;11.40;;;7.30;;
81996;SDS011;71500;50.806;8.774;2024-03-23T03:25:06;11.70;;;8.10;;
81996;SDS011;71500;50.806;8.774;2024-03-23T03:27:43;11.30;;;7.50;;
81996;SDS011;71500;50.806;8.774;2024-03-23T03:30:21;10.80;;;6.60;;
81996;SDS011;71500;50.806;8.774;2024-03-23T03:32:58;7.80;;;5.00;;
81996;SDS011;71500;50.806;8.774;2024-03-23T03:35:35;7.00;;;4.10;;
81996;SDS011;71500;50.806;8.774;2024-03-23T03:38:13;4.80;;;3.50;;
81996;SDS011;71500;50.806;8.774;2024-03-23T03:40:50;5.60;;;2.50;;
81996;SDS011;71500;50.806;8.774;2024-03-23T03:43:27;3.00;;;2.00;;
81996;SDS011;71500;50.806;8.774;2024-03-23T03:46:04;2.90;;;1.90;;
81996;SDS011;71500;50.806;8.774;2024-03-23T03:48:42;3.00;;;1.60;;
81996;SDS011;71500;50.806;8.774;2024-03-23T03:51:20;2.30;;;1.40;;
81996;SDS011;71500;50.806;8.774;2024-03-23T03:53:57;2.80;;;1.60;;
81996;SDS011;71500;50.806;8.774;2024-03-23T03:56:34;1.80;;;1.40;;
81996;SDS011;71500;50.806;8.774;2024-03-23T03:59:12;2.40;;;1.60;;
81996;SDS011;71500;50.806;8.774;2024-03-23T04:01:49;1.80;;;1.60;;
81996;SDS011;71500;50.806;8.774;2024-03-23T04:04:26;2.10;;;1.50;;
81996;SDS011;71500;50.806;8.774;2024-03-23T04:07:03;2.70;;;1.70;;
81996;SDS011;71500;50.806;8.774;2024-03-23T04:09:41;2.20;;;1.60;;
81996;SDS011;71500;50.806;8.774;2024-03-23T04:12:18;2.50;;;1.50;;
81996;SDS011;71500;50.806;8.774;2024-03-23T04:14:55;2.30;;;1.30;;
81996;SDS011;71500;50.806;8.774;2024-03-23T04:17:35;2.20;;;1.40;;
81996;SDS011;71500;50.806;8.774;2024-03-23T04:22:49;1.50;;;1.30;;
81996;SDS011;71500;50.806;8.774;2024-03-23T04:25:26;1.90;;;1.40;;
81996;SDS011;71500;50.806;8.774;2024-03-23T04:28:04;1.90;;;1.30;;
81996;SDS011;71500;50.806;8.774;2024-03-23T04:30:41;1.80;;;1.30;;
81996;SDS011;71500;50.806;8.774;2024-03-23T04:33:18;1.80;;;1.20;;
81996;SDS011;71500;50.806;8.774;2024-03-23T04:35:56;2.10;;;1.50;;
81996;SDS011;71500;50.806;8.774;2024-03-23T04:38:33;2.00;;;1.40;;
81996;SDS011;71500;50.806;8.774;2024-03-23T04:41:10;2.30;;;1.50;;
81996;SDS011;71500;50.806;8.774;2024-03-23T04:43:47;2.10;;;1.40;;
81996;SDS011;71500;50.806;8.774;2024-03-23T04:46:24;2.50;;;1.70;;
81996;SDS011;71500;50.806;8.774;2024-03-23T04:49:01;1.60;;;1.10;;
81996;SDS011;71500;50.806;8.774;2024-03-23T04:51:39;1.80;;;1.40;;
81996;SDS011;71500;50.806;8.774;2024-03-23T04:54:17;3.00;;;1.60;;
81996;SDS011;71500;50.806;8.774;2024-03-23T04:56:54;1.90;;;1.30;;
81996;SDS011;71500;50.806;8.774;2024-03-23T04:59:32;1.50;;;1.20;;
81996;SDS011;71500;50.806;8.774;2024-03-23T05:02:09;1.60;;;1.20;;
81996;SDS011;71500;50.806;8.774;2024-03-23T05:04:46;1.50;;;1.20;;
81996;SDS011;71500;50.806;8.774;2024-03-23T05:07:23;1.50;;;1.30;;
81996;SDS011;71500;50.806;8.774;2024-03-23T05:10:01;1.40;;;1.30;;
81996;SDS011;71500;50.806;8.774;2024-03-23T05:12:42;1.00;;;1.00;;
81996;SDS011;71500;50.806;8.774;2024-03-23T05:15:19;1.30;;;1.10;;
81996;SDS011;71500;50.806;8.774;2024-03-23T05:17:57;1.40;;;1.00;;
81996;SDS011;71500;50.806;8.774;2024-03-23T05:20:34;1.40;;;1.10;;
81996;SDS011;71500;50.806;8.774;2024-03-23T05:23:12;1.40;;;1.10;;
81996;SDS011;71500;50.806;8.774;2024-03-23T05:25:49;1.60;;;1.30;;
81996;SDS011;71500;50.806;8.774;2024-03-23T05:28:26;1.60;;;1.20;;
81996;SDS011;71500;50.806;8.774;2024-03-23T05:31:04;1.60;;;1.10;;
81996;SDS011;71500;50.806;8.774;2024-03-23T05:33:41;1.50;;;1.20;;
81996;SDS011;71500;50.806;8.774;2024-03-23T05:36:19;1.60;;;1.20;;
81996;SDS011;71500;50.806;8.774;2024-03-23T05:38:57;1.50;;;1.20;;
81996;SDS011;71500;50.806;8.774;2024-03-23T05:41:35;1.30;;;1.00;;
81996;SDS011;71500;50.806;8.774;2024-03-23T05:44:12;1.70;;;1.30;;
81996;SDS011;71500;50.806;8.774;2024-03-23T05:46:49;1.80;;;1.40;;
81996;SDS011;71500;50.806;8.774;2024-03-23T05:49:26;1.60;;;1.40;;
81996;SDS011;71500;50.806;8.774;2024-03-23T05:52:04;2.60;;;1.30;;
81996;SDS011;71500;50.806;8.774;2024-03-23T05:54:41;1.30;;;1.10;;
81996;SDS011;71500;50.806;8.774;2024-03-23T05:57:19;1.00;;;0.90;;
81996;SDS011;71500;50.806;8.774;2024-03-23T05:59:56;1.00;;;0.90;;
81996;SDS011;71500;50.806;8.774;2024-03-23T06:02:35;1.00;;;0.90;;
81996;SDS011;71500;50.806;8.774;2024-03-23T06:05:12;1.20;;;1.10;;
81996;SDS011;71500;50.806;8.774;2024-03-23T06:07:50;1.20;;;1.00;;
81996;SDS011;71500;50.806;8.774;2024-03-23T06:10:30;0.90;;;0.90;;
81996;SDS011;71500;50.806;8.774;2024-03-23T06:13:08;1.30;;;1.20;;
81996;SDS011;71500;50.806;8.774;2024-03-23T06:15:45;1.20;;;1.00;;
81996;SDS011;71500;50.806;8.774;2024-03-23T06:18:22;1.10;;;1.00;;
81996;SDS011;71500;50.806;8.774;2024-03-23T06:20:59;1.30;;;1.00;;
81996;SDS011;71500;50.806;8.774;2024-03-23T06:23:37;1.10;;;1.00;;
81996;SDS011;71500;50.806;8.774;2024-03-23T06:26:14;1.20;;;1.10;;
81996;SDS011;71500;50.806;8.774;2024-03-23T06:28:51;1.50;;;1.10;;
81996;SDS011;71500;50.806;8.774;2024-03-23T06:31:28;1.30;;;1.00;;
81996;SDS011;71500;50.806;8.774;2024-03-23T06:34:05;1.40;;;1.10;;
81996;SDS011;71500;50.806;8.774;2024-03-23T06:36:42;1.10;;;1.00;;
81996;SDS011;71500;50.806;8.774;2024-03-23T06:39:21;1.70;;;1.20;;
81996;SDS011;71500;50.806;8.774;2024-03-23T06:41:58;1.00;;;0.90;;
81996;SDS011;71500;50.806;8.774;2024-03-23T06:44:35;1.60;;;1.30;;
81996;SDS011;71500;50.806;8.774;2024-03-23T06:47:12;1.40;;;1.10;;
81996;SDS011;71500;50.806;8.774;2024-03-23T06:49:49;1.30;;;1.20;;
81996;SDS011;71500;50.806;8.774;2024-03-23T06:52:26;1.30;;;1.00;;
81996;SDS011;71500;50.806;8.774;2024-03-23T06:55:04;1.20;;;1.10;;
81996;SDS011;71500;50.806;8.774;2024-03-23T07:00:17;1.90;;;1.50;;
81996;SDS011;71500;50.806;8.774;2024-03-23T07:02:54;1.80;;;1.60;;
81996;SDS011;71500;50.806;8.774;2024-03-23T07:05:32;1.50;;;1.30;;
81996;SDS011;71500;50.806;8.774;2024-03-23T07:08:09;1.50;;;1.30;;
81996;SDS011;71500;50.806;8.774;2024-03-23T07:10:50;2.20;;;1.30;;
81996;SDS011;71500;50.806;8.774;2024-03-23T07:13:27;1.70;;;1.30;;
81996;SDS011;71500;50.806;8.774;2024-03-23T07:16:05;1.80;;;1.40;;
81996;SDS011;71500;50.806;8.774;2024-03-23T07:18:42;1.50;;;1.20;;
81996;SDS011;71500;50.806;8.774;2024-03-23T07:21:20;1.40;;;1.10;;
81996;SDS011;71500;50.806;8.774;2024-03-23T07:23:57;1.20;;;1.10;;
81996;SDS011;71500;50.806;8.774;2024-03-23T07:26:34;1.50;;;1.20;;
81996;SDS011;71500;50.806;8.774;2024-03-23T07:29:12;2.30;;;1.50;;
81996;SDS011;71500;50.806;8.774;2024-03-23T07:31:49;1.80;;;1.10;;
81996;SDS011;71500;50.806;8.774;2024-03-23T07:34:26;2.10;;;1.50;;
81996;SDS011;71500;50.806;8.774;2024-03-23T07:37:04;2.30;;;1.40;;
81996;SDS011;71500;50.806;8.774;2024-03-23T07:39:41;1.80;;;1.30;;
81996;SDS011;71500;50.806;8.774;2024-03-23T07:42:19;2.90;;;1.50;;
81996;SDS011;71500;50.806;8.774;2024-03-23T07:44:58;2.20;;;1.60;;
81996;SDS011;71500;50.806;8.774;2024-03-23T07:47:39;3.00;;;1.40;;
81996;SDS011;71500;50.806;8.774;2024-03-23T07:50:17;2.70;;;1.60;;
81996;SDS011;71500;50.806;8.774;2024-03-23T07:52:54;2.50;;;1.60;;
81996;SDS011;71500;50.806;8.774;2024-03-23T07:55:31;2.80;;;2.20;;
81996;SDS011;71500;50.806;8.774;2024-03-23T07:58:08;3.80;;;1.50;;
81996;SDS011;71500;50.806;8.774;2024-03-23T08:00:45;2.60;;;1.60;;
81996;SDS011;71500;50.806;8.774;2024-03-23T08:03:23;2.40;;;1.60;;
81996;SDS011;71500;50.806;8.774;2024-03-23T08:06:00;2.50;;;1.70;;
81996;SDS011;71500;50.806;8.774;2024-03-23T08:08:44;2.80;;;2.10;;
81996;SDS011;71500;50.806;8.774;2024-03-23T08:11:22;3.60;;;1.90;;
81996;SDS011;71500;50.806;8.774;2024-03-23T08:13:59;4.00;;;1.90;;
81996;SDS011;71500;50.806;8.774;2024-03-23T08:16:37;5.10;;;2.00;;
81996;SDS011;71500;50.806;8.774;2024-03-23T08:19:20;3.50;;;2.20;;
81996;SDS011;71500;50.806;8.774;2024-03-23T08:21:57;3.40;;;1.80;;
81996;SDS011;71500;50.806;8.774;2024-03-23T08:24:34;3.80;;;2.50;;
81996;SDS011;71500;50.806;8.774;2024-03-23T08:27:11;4.00;;;2.00;;
81996;SDS011;71500;50.806;8.774;2024-03-23T08:29:48;6.20;;;2.60;;
81996;SDS011;71500;50.806;8.774;2024-03-23T08:32:25;5.70;;;2.60;;
81996;SDS011;71500;50.806;8.774;2024-03-23T08:35:03;4.10;;;2.00;;
81996;SDS011;71500;50.806;8.774;2024-03-23T08:37:41;4.40;;;2.50;;
81996;SDS011;71500;50.806;8.774;2024-03-23T08:40:18;4.80;;;2.40;;
81996;SDS011;71500;50.806;8.774;2024-03-23T08:42:56;3.50;;;2.20;;
81996;SDS011;71500;50.806;8.774;2024-03-23T08:45:33;5.80;;;3.20;;
81996;SDS011;71500;50.806;8.774;2024-03-23T08:48:10;7.10;;;2.90;;
81996;SDS011;71500;50.806;8.774;2024-03-23T08:50:47;4.70;;;3.20;;
81996;SDS011;71500;50.806;8.774;2024-03-23T08:53:36;5.90;;;3.00;;
81996;SDS011;71500;50.806;8.774;2024-03-23T08:56:14;4.40;;;2.90;;
81996;SDS011;71500;50.806;8.774;2024-03-23T08:58:51;3.70;;;2.70;;
81996;SDS011;71500;50.806;8.774;2024-03-23T09:01:28;4.20;;;2.80;;
81996;SDS011;71500;50.806;8.774;2024-03-23T09:04:05;3.70;;;2.60;;
81996;SDS011;71500;50.806;8.774;2024-03-23T09:06:44;5.50;;;3.30;;
81996;SDS011;71500;50.806;8.774;2024-03-23T09:09:21;4.50;;;2.70;;
81996;SDS011;71500;50.806;8.774;2024-03-23T09:11:59;5.50;;;3.80;;
81996;SDS011;71500;50.806;8.774;2024-03-23T09:14:37;7.00;;;3.00;;
81996;SDS011;71500;50.806;8.774;2024-03-23T09:17:14;6.40;;;2.60;;
81996;SDS011;71500;50.806;8.774;2024-03-23T09:19:51;4.80;;;2.30;;
81996;SDS011;71500;50.806;8.774;2024-03-23T09:22:28;8.20;;;3.70;;
81996;SDS011;71500;50.806;8.774;2024-03-23T09:25:06;4.70;;;2.80;;
81996;SDS011;71500;50.806;8.774;2024-03-23T09:27:44;4.40;;;2.80;;
81996;SDS011;71500;50.806;8.774;2024-03-23T09:30:23;5.10;;;2.90;;
81996;SDS011;71500;50.806;8.774;2024-03-23T09:33:00;5.50;;;3.20;;
81996;SDS011;71500;50.806;8.774;2024-03-23T09:35:38;5.50;;;2.90;;
81996;SDS011;71500;50.806;8.774;2024-03-23T09:38:16;6.00;;;3.10;;
81996;SDS011;71500;50.806;8.774;2024-03-23T09:40:53;6.20;;;3.10;;
81996;SDS011;71500;50.806;8.774;2024-03-23T09:43:31;7.40;;;3.40;;
81996;SDS011;71500;50.806;8.774;2024-03-23T09:46:08;5.70;;;3.10;;
81996;SDS011;71500;50.806;8.774;2024-03-23T09:48:46;6.30;;;3.10;;
81996;SDS011;71500;50.806;8.774;2024-03-23T09:51:23;6.00;;;3.40;;
81996;SDS011;71500;50.806;8.774;2024-03-23T09:54:00;5.10;;;3.10;;
81996;SDS011;71500;50.806;8.774;2024-03-23T09:56:38;7.00;;;3.40;;
81996;SDS011;71500;50.806;8.774;2024-03-23T09:59:15;6.50;;;2.80;;
81996;SDS011;71500;50.806;8.774;2024-03-23T10:01:52;5.50;;;2.80;;
81996;SDS011;71500;50.806;8.774;2024-03-23T10:04:40;9.10;;;3.70;;
81996;SDS011;71500;50.806;8.774;2024-03-23T10:07:20;5.10;;;3.30;;
81996;SDS011;71500;50.806;8.774;2024-03-23T10:09:57;4.60;;;2.70;;
81996;SDS011;71500;50.806;8.774;2024-03-23T10:12:46;5.40;;;2.70;;
81996;SDS011;71500;50.806;8.774;2024-03-23T10:15:24;4.30;;;2.60;;
81996;SDS011;71500;50.806;8.774;2024-03-23T10:18:02;5.10;;;2.50;;
81996;SDS011;71500;50.806;8.774;2024-03-23T10:21:06;5.80;;;2.80;;
81996;SDS011;71500;50.806;8.774;2024-03-23T10:23:45;3.90;;;2.60;;
81996;SDS011;71500;50.806;8.774;2024-03-23T10:26:23;4.90;;;2.30;;
81996;SDS011;71500;50.806;8.774;2024-03-23T10:29:02;5.10;;;3.40;;
81996;SDS011;71500;50.806;8.774;2024-03-23T10:31:39;4.50;;;2.50;;
81996;SDS011;71500;50.806;8.774;2024-03-23T10:34:19;4.90;;;2.60;;
81996;SDS011;71500;50.806;8.774;2024-03-23T10:37:02;4.50;;;2.90;;
81996;SDS011;71500;50.806;8.774;2024-03-23T10:39:41;4.70;;;2.30;;
81996;SDS011;71500;50.806;8.774;2024-03-23T10:42:18;4.70;;;2.70;;
81996;SDS011;71500;50.806;8.774;2024-03-23T10:44:55;6.30;;;2.50;;
81996;SDS011;71500;50.806;8.774;2024-03-23T10:47:34;4.90;;;2.80;;
81996;SDS011;71500;50.806;8.774;2024-03-23T10:50:12;4.80;;;2.60;;
81996;SDS011;71500;50.806;8.774;2024-03-23T10:52:49;3.90;;;2.40;;
81996;SDS011;71500;50.806;8.774;2024-03-23T10:55:31;4.50;;;2.70;;
81996;SDS011;71500;50.806;8.774;2024-03-23T10:58:08;4.50;;;2.40;;
81996;SDS011;71500;50.806;8.774;2024-03-23T11:00:46;5.60;;;2.20;;
81996;SDS011;71500;50.806;8.774;2024-03-23T11:06:10;5.70;;;2.10;;
81996;SDS011;71500;50.806;8.774;2024-03-23T11:09:03;3.50;;;2.20;;
81996;SDS011;71500;50.806;8.774;2024-03-23T11:12:00;3.60;;;2.10;;
81996;SDS011;71500;50.806;8.774;2024-03-23T11:15:04;2.70;;;1.80;;
81996;SDS011;71500;50.806;8.774;2024-03-23T11:17:46;3.30;;;1.90;;
81996;SDS011;71500;50.806;8.774;2024-03-23T11:20:40;3.00;;;1.90;;
81996;SDS011;71500;50.806;8.774;2024-03-23T11:23:29;3.10;;;1.90;;
81996;SDS011;71500;50.806;8.774;2024-03-23T11:26:09;4.00;;;1.90;;
81996;SDS011;71500;50.806;8.774;2024-03-23T11:28:47;3.30;;;2.00;;
81996;SDS011;71500;50.806;8.774;2024-03-23T11:31:24;3.80;;;2.10;;
81996;SDS011;71500;50.806;8.774;2024-03-23T11:34:05;4.50;;;2.00;;
81996;SDS011;71500;50.806;8.774;2024-03-23T11:36:42;3.20;;;2.00;;
81996;SDS011;71500;50.806;8.774;2024-03-23T11:39:20;4.20;;;2.00;;
81996;SDS011;71500;50.806;8.774;2024-03-23T11:41:57;3.50;;;2.50;;
81996;SDS011;71500;50.806;8.774;2024-03-23T11:44:34;3.50;;;1.90;;
81996;SDS011;71500;50.806;8.774;2024-03-23T11:47:12;3.00;;;1.60;;
81996;SDS011;71500;50.806;8.774;2024-03-23T11:49:49;3.80;;;1.80;;
81996;SDS011;71500;50.806;8.774;2024-03-23T11:52:26;2.30;;;1.50;;
81996;SDS011;71500;50.806;8.774;2024-03-23T11:55:05;3.00;;;1.90;;
81996;SDS011;71500;50.806;8.774;2024-03-23T11:57:43;21.20;;;9.90;;
81996;SDS011;71500;50.806;8.774;2024-03-23T12:00:24;5.50;;;2.80;;
81996;SDS011;71500;50.806;8.774;2024-03-23T12:03:04;3.00;;;1.80;;
81996;SDS011;71500;50.806;8.774;2024-03-23T12:05:42;3.80;;;2.10;;
81996;SDS011;71500;50.806;8.774;2024-03-23T12:08:25;2.60;;;1.70;;
81996;SDS011;71500;50.806;8.774;2024-03-23T12:11:07;2.20;;;1.50;;
81996;SDS011;71500;50.806;8.774;2024-03-23T12:13:46;2.30;;;1.60;;
81996;SDS011;71500;50.806;8.774;2024-03-23T12:16:24;2.40;;;1.40;;
81996;SDS011;71500;50.806;8.774;2024-03-23T12:19:06;2.20;;;1.70;;
81996;SDS011;71500;50.806;8.774;2024-03-23T12:21:43;2.50;;;1.60;;
81996;SDS011;71500;50.806;8.774;2024-03-23T12:24:21;4.50;;;2.10;;
81996;SDS011;71500;50.806;8.774;2024-03-23T12:27:01;3.20;;;2.20;;
81996;SDS011;71500;50.806;8.774;2024-03-23T12:29:39;3.00;;;1.60;;
81996;SDS011;71500;50.806;8.774;2024-03-23T12:34:52;4.10;;;1.80;;
81996;SDS011;71500;50.806;8.774;2024-03-23T12:37:29;6.60;;;3.30;;
81996;SDS011;71500;50.806;8.774;2024-03-23T12:40:09;3.90;;;3.10;;
81996;SDS011;71500;50.806;8.774;2024-03-23T12:42:47;2.80;;;1.80;;
81996;SDS011;71500;50.806;8.774;2024-03-23T12:45:24;2.90;;;2.00;;
81996;SDS011;71500;50.806;8.774;2024-03-23T12:48:01;4.20;;;2.00;;
81996;SDS011;71500;50.806;8.774;2024-03-23T12:50:38;3.10;;;1.80;;
81996;SDS011;71500;50.806;8.774;2024-03-23T12:53:15;3.10;;;1.40;;
81996;SDS011;71500;50.806;8.774;2024-03-23T12:55:53;2.20;;;1.60;;
81996;SDS011;71500;50.806;8.774;2024-03-23T12:58:30;3.00;;;2.00;;
81996;SDS011;71500;50.806;8.774;2024-03-23T13:01:07;4.00;;;1.80;;
81996;SDS011;71500;50.806;8.774;2024-03-23T13:03:44;3.40;;;1.70;;
81996;SDS011;71500;50.806;8.774;2024-03-23T13:06:23;2.00;;;1.60;;
81996;SDS011;71500;50.806;8.774;2024-03-23T13:09:05;2.50;;;1.70;;
81996;SDS011;71500;50.806;8.774;2024-03-23T13:11:43;2.90;;;1.40;;
81996;SDS011;71500;50.806;8.774;2024-03-23T13:14:20;1.70;;;1.20;;
81996;SDS011;71500;50.806;8.774;2024-03-23T13:16:57;2.40;;;1.60;;
81996;SDS011;71500;50.806;8.774;2024-03-23T13:19:35;3.70;;;1.80;;
81996;SDS011;71500;50.806;8.774;2024-03-23T13:22:12;3.40;;;1.80;;
81996;SDS011;71500;50.806;8.774;2024-03-23T13:24:49;3.60;;;1.80;;
81996;SDS011;71500;50.806;8.774;2024-03-23T13:27:27;7.80;;;3.90;;
81996;SDS011;71500;50.806;8.774;2024-03-23T13:30:05;44.80;;;21.20;;
81996;SDS011;71500;50.806;8.774;2024-03-23T13:32:43;5.40;;;3.20;;
81996;SDS011;71500;50.806;8.774;2024-03-23T13:35:20;3.80;;;2.30;;
81996;SDS011;71500;50.806;8.774;2024-03-23T13:37:57;4.20;;;2.40;;
81996;SDS011;71500;50.806;8.774;2024-03-23T13:40:35;2.90;;;1.60;;
81996;SDS011;71500;50.806;8.774;2024-03-23T13:43:12;3.00;;;1.70;;
81996;SDS011;71500;50.806;8.774;2024-03-23T13:45:51;2.80;;;1.70;;
81996;SDS011;71500;50.806;8.774;2024-03-23T13:48:30;2.80;;;1.60;;
81996;SDS011;71500;50.806;8.774;2024-03-23T13:51:08;3.30;;;1.70;;
81996;SDS011;71500;50.806;8.774;2024-03-23T13:53:45;2.90;;;1.60;;
81996;SDS011;71500;50.806;8.774;2024-03-23T13:56:22;5.40;;;2.60;;
81996;SDS011;71500;50.806;8.774;2024-03-23T13:59:00;4.10;;;3.20;;
81996;SDS011;71500;50.806;8.774;2024-03-23T14:01:37;3.00;;;1.50;;
81996;SDS011;71500;50.806;8.774;2024-03-23T14:04:14;2.70;;;1.60;;
81996;SDS011;71500;50.806;8.774;2024-03-23T14:06:52;3.70;;;1.70;;
81996;SDS011;71500;50.806;8.774;2024-03-23T14:09:29;3.10;;;2.20;;
81996;SDS011;71500;50.806;8.774;2024-03-23T14:12:07;3.90;;;2.40;;
81996;SDS011;71500;50.806;8.774;2024-03-23T14:14:44;4.40;;;2.20;;
81996;SDS011;71500;50.806;8.774;2024-03-23T14:17:21;3.20;;;1.70;;
81996;SDS011;71500;50.806;8.774;2024-03-23T14:19:59;4.00;;;1.90;;
81996;SDS011;71500;50.806;8.774;2024-03-23T14:22:42;2.80;;;1.80;;
81996;SDS011;71500;50.806;8.774;2024-03-23T14:25:20;3.30;;;2.00;;
81996;SDS011;71500;50.806;8.774;2024-03-23T14:28:00;2.80;;;1.70;;
81996;SDS011;71500;50.806;8.774;2024-03-23T14:30:41;2.50;;;1.60;;
81996;SDS011;71500;50.806;8.774;2024-03-23T14:33:21;2.80;;;2.00;;
81996;SDS011;71500;50.806;8.774;2024-03-23T14:35:59;4.50;;;2.50;;
81996;SDS011;71500;50.806;8.774;2024-03-23T14:38:37;2.00;;;1.50;;
81996;SDS011;71500;50.806;8.774;2024-03-23T14:41:15;2.40;;;1.50;;
81996;SDS011;71500;50.806;8.774;2024-03-23T14:43:52;2.90;;;2.00;;
81996;SDS011;71500;50.806;8.774;2024-03-23T14:46:29;4.20;;;2.20;;
81996;SDS011;71500;50.806;8.774;2024-03-23T14:49:06;2.60;;;1.90;;
81996;SDS011;71500;50.806;8.774;2024-03-23T14:51:49;3.90;;;1.90;;
81996;SDS011;71500;50.806;8.774;2024-03-23T14:54:26;2.90;;;2.20;;
81996;SDS011;71500;50.806;8.774;2024-03-23T14:57:03;3.70;;;2.50;;
81996;SDS011;71500;50.806;8.774;2024-03-23T14:59:41;4.20;;;2.40;;
81996;SDS011;71500;50.806;8.774;2024-03-23T15:02:19;4.30;;;2.30;;
81996;SDS011;71500;50.806;8.774;2024-03-23T15:04:59;4.70;;;2.60;;
81996;SDS011;71500;50.806;8.774;2024-03-23T15:07:37;4.20;;;2.00;;
81996;SDS011;71500;50.806;8.774;2024-03-23T15:10:15;3.20;;;2.10;;
81996;SDS011;71500;50.806;8.774;2024-03-23T15:12:53;4.40;;;2.70;;
81996;SDS011;71500;50.806;8.774;2024-03-23T15:15:30;3.90;;;2.70;;
81996;SDS011;71500;50.806;8.774;2024-03-23T15:18:12;4.00;;;2.50;;
81996;SDS011;71500;50.806;8.774;2024-03-23T15:20:57;7.00;;;4.10;;
81996;SDS011;71500;50.806;8.774;2024-03-23T15:23:37;4.80;;;2.50;;
81996;SDS011;71500;50.806;8.774;2024-03-23T15:26:15;3.20;;;1.90;;
81996;SDS011;71500;50.806;8.774;2024-03-23T15:28:52;4.50;;;2.30;;
81996;SDS011;71500;50.806;8.774;2024-03-23T15:31:42;5.00;;;2.50;;
81996;SDS011;71500;50.806;8.774;2024-03-23T15:34:24;3.50;;;1.90;;
81996;SDS011;71500;50.806;8.774;2024-03-23T15:37:01;4.00;;;2.10;;
81996;SDS011;71500;50.806;8.774;2024-03-23T15:39:38;4.30;;;2.00;;
81996;SDS011;71500;50.806;8.774;2024-03-23T15:42:15;3.90;;;2.10;;
81996;SDS011;71500;50.806;8.774;2024-03-23T15:44:53;2.70;;;2.00;;
81996;SDS011;71500;50.806;8.774;2024-03-23T15:47:31;3.60;;;2.30;;
81996;SDS011;71500;50.806;8.774;2024-03-23T15:50:09;2.90;;;2.20;;
81996;SDS011;71500;50.806;8.774;2024-03-23T15:52:46;4.60;;;2.80;;
81996;SDS011;71500;50.806;8.774;2024-03-23T15:55:24;4.00;;;2.10;;
81996;SDS011;71500;50.806;8.774;2024-03-23T15:58:01;3.80;;;2.50;;
81996;SDS011;71500;50.806;8.774;2024-03-23T16:00:38;4.50;;;2.20;;
81996;SDS011;71500;50.806;8.774;2024-03-23T16:03:16;5.20;;;2.40;;
81996;SDS011;71500;50.806;8.774;2024-03-23T16:05:53;4.20;;;2.50;;
81996;SDS011;71500;50.806;8.774;2024-03-23T16:08:31;4.90;;;2.30;;
81996;SDS011;71500;50.806;8.774;2024-03-23T16:11:10;3.00;;;2.10;;
81996;SDS011;71500;50.806;8.774;2024-03-23T16:13:47;4.90;;;2.20;;
81996;SDS011;71500;50.806;8.774;2024-03-23T16:16:24;3.40;;;2.30;;
81996;SDS011;71500;50.806;8.774;2024-03-23T16:19:02;4.70;;;2.70;;
81996;SDS011;71500;50.806;8.774;2024-03-23T16:21:40;8.20;;;3.40;;
81996;SDS011;71500;50.806;8.774;2024-03-23T16:24:17;4.90;;;3.00;;
81996;SDS011;71500;50.806;8.774;2024-03-23T16:26:54;3.70;;;2.30;;
81996;SDS011;71500;50.806;8.774;2024-03-23T16:29:31;5.00;;;2.10;;
81996;SDS011;71500;50.806;8.774;2024-03-23T16:32:08;2.00;;;1.40;;
81996;SDS011;71500;50.806;8.774;2024-03-23T16:34:46;3.00;;;1.60;;
81996;SDS011;71500;50.806;8.774;2024-03-23T16:37:23;3.60;;;1.80;;
81996;SDS011;71500;50.806;8.774;2024-03-23T16:40:00;3.10;;;2.00;;
81996;SDS011;71500;50.806;8.774;2024-03-23T16:42:38;3.90;;;1.70;;
81996;SDS011;71500;50.806;8.774;2024-03-23T16:45:15;3.30;;;2.20;;
81996;SDS011;71500;50.806;8.774;2024-03-23T16:47:52;3.70;;;2.50;;
81996;SDS011;71500;50.806;8.774;2024-03-23T16:50:30;3.60;;;2.10;;
81996;SDS011;71500;50.806;8.774;2024-03-23T16:53:12;3.60;;;2.10;;
81996;SDS011;71500;50.806;8.774;2024-03-23T16:55:53;2.60;;;2.00;;